createdAt,value
2023-04-04T00:00:57.239Z,-0.72
2023-04-04T00:03:25.377Z,-0.72
2023-04-04T00:05:53.728Z,-0.71
2023-04-04T00:08:22.040Z,-0.73
2023-04-04T00:10:50.190Z,-0.73
2023-04-04T00:13:18.136Z,-0.77
2023-04-04T00:15:46.011Z,-0.72
2023-04-04T00:18:14.139Z,-0.87
2023-04-04T00:20:42.505Z,-0.88
2023-04-04T00:23:13.455Z,-0.89
2023-04-04T00:25:41.633Z,-0.91
2023-04-04T00:28:09.592Z,-0.95
2023-04-04T00:30:40.412Z,-0.97
2023-04-04T00:33:09.184Z,-1.00
2023-04-04T00:35:37.882Z,-1.09
2023-04-04T00:38:06.016Z,-1.14
2023-04-04T00:40:49.828Z,-1.24
2023-04-04T00:43:18.917Z,-1.33
2023-04-04T00:45:47.254Z,-1.33
2023-04-04T00:48:15.621Z,-1.37
2023-04-04T00:50:43.530Z,-1.42
2023-04-04T00:53:11.860Z,-1.42
2023-04-04T00:55:40.516Z,-1.40
2023-04-04T00:58:09.041Z,-1.42
2023-04-04T01:00:38.306Z,-1.44
2023-04-04T01:03:07.928Z,-1.47
2023-04-04T01:05:36.311Z,-1.46
2023-04-04T01:08:04.652Z,-1.44
2023-04-04T01:10:33.908Z,-1.50
2023-04-04T01:13:02.284Z,-1.52
2023-04-04T01:15:32.090Z,-1.45
2023-04-04T01:18:04.322Z,-1.52
2023-04-04T01:20:38.258Z,-1.54
2023-04-04T01:23:11.025Z,-1.54
2023-04-04T01:25:39.669Z,-1.56
2023-04-04T01:28:13.676Z,-1.56
2023-04-04T01:30:44.594Z,-1.59
2023-04-04T01:33:35.374Z,-1.64
2023-04-04T01:36:36.645Z,-1.69
2023-04-04T01:39:58.089Z,-1.80
2023-04-04T01:42:28.694Z,-1.82
2023-04-04T01:44:58.204Z,-1.85
2023-04-04T01:47:42.102Z,-1.86
2023-04-04T01:50:15.557Z,-1.84
2023-04-04T01:52:44.706Z,-1.85
2023-04-04T01:55:12.931Z,-1.89
2023-04-04T01:57:41.557Z,-1.88
2023-04-04T02:00:11.178Z,-1.92
2023-04-04T02:02:46.662Z,-1.94
2023-04-04T02:05:15.060Z,-1.92
2023-04-04T02:07:47.186Z,-1.88
2023-04-04T02:10:23.376Z,-1.88
2023-04-04T02:12:53.480Z,-1.81
2023-04-04T02:15:24.449Z,-1.80
2023-04-04T02:17:52.716Z,-1.77
2023-04-04T02:20:20.796Z,-1.79
2023-04-04T02:22:56.209Z,-1.77
2023-04-04T02:25:25.658Z,-1.76
2023-04-04T02:27:53.902Z,-1.77
2023-04-04T02:30:22.353Z,-1.74
2023-04-04T02:32:51.716Z,-1.73
2023-04-04T02:35:22.026Z,-1.69
2023-04-04T02:37:51.804Z,-1.68
2023-04-04T02:40:24.559Z,-1.68
2023-04-04T02:42:52.515Z,-1.69
2023-04-04T02:45:22.837Z,-1.66
2023-04-04T02:48:00.203Z,-1.63
2023-04-04T02:50:39.665Z,-1.66
2023-04-04T02:53:09.685Z,-1.60
2023-04-04T02:55:38.787Z,-1.60
2023-04-04T02:58:07.116Z,-1.60
2023-04-04T03:00:35.409Z,-1.65
2023-04-04T03:03:04.006Z,-1.69
2023-04-04T03:05:36.311Z,-1.73
2023-04-04T03:08:04.927Z,-1.73
2023-04-04T03:10:32.932Z,-1.70
2023-04-04T03:13:01.116Z,-1.74
2023-04-04T03:15:31.796Z,-1.74
2023-04-04T03:18:00.287Z,-1.75
2023-04-04T03:20:31.561Z,-1.80
2023-04-04T03:22:59.415Z,-1.83
2023-04-04T03:25:27.719Z,-1.85
2023-04-04T03:27:57.043Z,-1.87
2023-04-04T03:30:27.419Z,-1.93
2023-04-04T03:32:56.114Z,-1.96
2023-04-04T03:35:24.957Z,-2.05
2023-04-04T03:37:54.819Z,-2.08
2023-04-04T03:40:22.761Z,-2.09
2023-04-04T03:42:51.656Z,-2.15
2023-04-04T03:45:21.102Z,-2.25
2023-04-04T03:47:49.070Z,-2.22
2023-04-04T03:50:17.450Z,-2.27
2023-04-04T03:52:51.317Z,-2.28
2023-04-04T03:55:20.152Z,-2.29
2023-04-04T03:57:48.472Z,-2.34
2023-04-04T04:00:20.981Z,-2.37
2023-04-04T04:02:48.888Z,-2.43
2023-04-04T04:05:17.482Z,-2.43
2023-04-04T04:07:47.551Z,-2.46
2023-04-04T04:10:15.477Z,-2.48
2023-04-04T04:12:43.359Z,-2.49
2023-04-04T04:15:12.516Z,-2.48
2023-04-04T04:17:42.408Z,-2.47
2023-04-04T04:20:12.600Z,-2.49
2023-04-04T04:22:48.227Z,-2.51
2023-04-04T04:25:17.972Z,-2.45
2023-04-04T04:27:58.278Z,-2.44
2023-04-04T04:30:27.621Z,-2.39
2023-04-04T04:32:56.369Z,-2.37
2023-04-04T04:35:30.941Z,-2.31
2023-04-04T04:38:02.174Z,-2.30
2023-04-04T04:40:30.900Z,-2.24
2023-04-04T04:43:05.696Z,-2.18
2023-04-04T04:45:33.704Z,-2.12
2023-04-04T04:48:10.503Z,-2.08
2023-04-04T04:50:47.934Z,-2.01
2023-04-04T04:53:22.481Z,-1.97
2023-04-04T04:55:52.472Z,-1.91
2023-04-04T04:58:25.001Z,-1.85
2023-04-04T05:01:00.280Z,-1.72
2023-04-04T05:03:37.969Z,-1.55
2023-04-04T05:06:09.110Z,-1.12
2023-04-04T05:08:39.191Z,-0.66
2023-04-04T05:11:19.783Z,-0.17
2023-04-04T05:13:48.803Z,0.17
2023-04-04T05:16:18.181Z,0.33
2023-04-04T05:18:48.801Z,0.45
2023-04-04T05:21:17.127Z,0.25
2023-04-04T05:23:48.366Z,0.32
2023-04-04T05:26:18.606Z,0.66
2023-04-04T05:28:50.644Z,0.90
2023-04-04T05:31:22.199Z,0.92
2023-04-04T05:33:52.512Z,0.86
2023-04-04T05:36:39.653Z,0.92
2023-04-04T05:39:09.309Z,0.89
2023-04-04T05:41:44.912Z,1.08
2023-04-04T05:44:17.154Z,1.25
2023-04-04T05:46:45.807Z,1.29
2023-04-04T05:49:14.469Z,1.03
2023-04-04T05:51:50.694Z,1.28
2023-04-04T05:54:18.945Z,1.42
2023-04-04T05:56:47.803Z,1.74
2023-04-04T05:59:27.397Z,1.95
2023-04-04T06:02:02.751Z,2.03
2023-04-04T06:04:32.529Z,2.17
2023-04-04T06:07:02.651Z,2.17
2023-04-04T06:09:31.053Z,2.21
2023-04-04T06:11:59.698Z,2.19
2023-04-04T06:14:28.628Z,2.26
2023-04-04T06:16:58.313Z,2.23
2023-04-04T06:19:27.701Z,2.25
2023-04-04T06:21:56.083Z,2.25
2023-04-04T06:24:24.342Z,2.30
2023-04-04T06:26:53.217Z,2.34
2023-04-04T06:29:26.330Z,2.57
2023-04-04T06:31:58.492Z,2.73
2023-04-04T06:34:36.866Z,3.09
2023-04-04T06:37:06.088Z,3.38
2023-04-04T06:39:41.334Z,3.58
2023-04-04T06:42:17.084Z,3.48
2023-04-04T06:44:49.316Z,2.25
2023-04-04T06:47:18.027Z,2.16
2023-04-04T06:49:46.039Z,2.97
2023-04-04T06:52:14.498Z,3.53
2023-04-04T06:54:42.984Z,3.99
2023-04-04T06:57:10.999Z,4.26
2023-04-04T06:59:39.324Z,3.77
2023-04-04T07:02:07.706Z,3.10
2023-04-04T07:04:38.185Z,3.01
2023-04-04T07:07:06.494Z,3.43
2023-04-04T07:09:35.113Z,3.13
2023-04-04T07:12:03.560Z,2.24
2023-04-04T07:14:31.927Z,2.65
2023-04-04T07:17:02.116Z,2.20
2023-04-04T07:19:31.699Z,2.32
2023-04-04T07:22:00.156Z,1.90
2023-04-04T07:24:29.191Z,2.15
2023-04-04T07:26:57.460Z,3.41
2023-04-04T07:29:25.574Z,3.52
2023-04-04T07:31:54.315Z,2.95
2023-04-04T07:34:22.803Z,2.49
2023-04-04T07:36:51.086Z,3.64
2023-04-04T07:39:20.347Z,3.98
2023-04-04T07:41:48.572Z,4.89
2023-04-04T07:44:16.788Z,5.30
2023-04-04T07:46:49.830Z,5.75
2023-04-04T07:49:24.170Z,5.98
2023-04-04T07:51:52.556Z,4.90
2023-04-04T07:54:20.630Z,3.47
2023-04-04T07:56:48.957Z,5.11
2023-04-04T07:59:17.362Z,5.82
2023-04-04T08:01:46.268Z,5.93
2023-04-04T08:04:14.948Z,6.67
2023-04-04T08:06:43.739Z,7.09
2023-04-04T08:09:11.939Z,5.60
2023-04-04T08:11:40.100Z,5.19
2023-04-04T08:14:12.218Z,6.17
2023-04-04T08:16:41.134Z,6.31
2023-04-04T08:19:09.972Z,4.93
2023-04-04T08:21:38.352Z,4.60
2023-04-04T08:24:08.105Z,6.11
2023-04-04T08:26:36.698Z,6.47
2023-04-04T08:29:05.356Z,6.42
2023-04-04T08:31:34.430Z,5.66
2023-04-04T08:34:02.659Z,6.76
2023-04-04T08:36:31.090Z,7.36
2023-04-04T08:39:01.870Z,7.57
2023-04-04T08:41:35.181Z,6.58
2023-04-04T08:44:05.269Z,6.23
2023-04-04T08:46:33.767Z,7.08
2023-04-04T08:49:04.547Z,4.95
2023-04-04T08:51:34.477Z,5.78
2023-04-04T08:54:03.696Z,5.83
2023-04-04T08:56:32.685Z,6.02
2023-04-04T08:59:01.291Z,6.21
2023-04-04T09:01:30.006Z,6.80
2023-04-04T09:04:01.018Z,6.70
2023-04-04T09:06:29.133Z,6.53
2023-04-04T09:08:59.897Z,5.71
2023-04-04T09:11:31.926Z,5.88
2023-04-04T09:14:04.616Z,5.97
2023-04-04T09:16:33.001Z,6.12
2023-04-04T09:19:01.408Z,7.03
2023-04-04T09:21:35.032Z,6.45
2023-04-04T09:24:03.291Z,6.45
2023-04-04T09:26:52.604Z,6.33
2023-04-04T09:29:22.014Z,6.02
2023-04-04T09:31:51.623Z,6.12
2023-04-04T09:34:21.848Z,5.18
2023-04-04T09:36:50.292Z,4.44
2023-04-04T09:39:23.518Z,5.56
2023-04-04T09:41:52.186Z,5.50
2023-04-04T09:44:20.563Z,4.67
2023-04-04T09:46:52.326Z,5.47
2023-04-04T09:49:23.955Z,5.58
2023-04-04T09:51:55.663Z,5.52
2023-04-04T09:54:29.716Z,4.98
2023-04-04T09:56:59.460Z,4.89
2023-04-04T09:59:28.612Z,4.49
2023-04-04T10:01:57.136Z,4.36
2023-04-04T10:04:27.418Z,5.10
2023-04-04T10:06:56.481Z,5.30
2023-04-04T10:09:25.183Z,4.74
2023-04-04T10:12:10.063Z,5.24
2023-04-04T10:14:38.886Z,5.40
2023-04-04T10:17:13.689Z,5.41
2023-04-04T10:19:43.055Z,5.31
2023-04-04T10:22:11.991Z,5.48
2023-04-04T10:24:40.251Z,5.82
2023-04-04T10:27:10.407Z,6.10
2023-04-04T10:29:38.804Z,5.78
2023-04-04T10:32:10.171Z,5.91
2023-04-04T10:35:08.075Z,5.71
2023-04-04T10:37:44.238Z,5.79
2023-04-04T10:40:19.861Z,5.63
2023-04-04T10:42:50.206Z,5.65
2023-04-04T10:45:21.734Z,4.13
2023-04-04T10:47:51.332Z,4.40
2023-04-04T10:50:21.808Z,5.55
2023-04-04T10:52:51.838Z,5.34
2023-04-04T10:55:20.438Z,5.71
2023-04-04T10:57:52.923Z,4.25
2023-04-04T11:00:23.737Z,4.64
2023-04-04T11:02:58.775Z,5.08
2023-04-04T11:05:51.656Z,5.62
2023-04-04T11:08:25.246Z,5.73
2023-04-04T11:10:55.265Z,5.63
2023-04-04T11:13:29.458Z,5.26
2023-04-04T11:16:16.132Z,5.60
2023-04-04T11:18:45.673Z,5.76
2023-04-04T11:21:26.652Z,5.65
2023-04-04T11:23:54.534Z,5.70
2023-04-04T11:26:46.181Z,5.72
2023-04-04T11:29:22.854Z,5.91
2023-04-04T11:31:52.147Z,5.11
2023-04-04T11:34:34.294Z,5.20
2023-04-04T11:37:20.231Z,5.45
2023-04-04T11:39:59.253Z,5.07
2023-04-04T11:42:38.540Z,5.82
2023-04-04T11:45:09.866Z,5.89
2023-04-04T11:47:40.279Z,5.66
2023-04-04T11:50:10.978Z,5.54
2023-04-04T11:52:39.616Z,4.69
2023-04-04T11:55:20.158Z,5.13
2023-04-04T11:57:55.708Z,4.96
2023-04-04T12:00:32.407Z,4.83
2023-04-04T12:03:00.646Z,4.99
2023-04-04T12:05:30.952Z,5.08
2023-04-04T12:08:02.774Z,5.22
2023-04-04T12:10:36.260Z,5.25
2023-04-04T12:13:10.419Z,5.26
2023-04-04T12:15:39.496Z,4.64
2023-04-04T12:18:09.410Z,5.33
2023-04-04T12:20:41.900Z,5.38
2023-04-04T12:23:10.290Z,5.71
2023-04-04T12:25:40.490Z,5.33
2023-04-04T12:28:09.525Z,5.42
2023-04-04T12:30:39.363Z,5.67
2023-04-04T12:33:07.737Z,5.79
2023-04-04T12:35:36.663Z,5.04
2023-04-04T12:38:10.833Z,5.37
2023-04-04T12:40:39.889Z,5.55
2023-04-04T12:43:17.844Z,5.49
2023-04-04T12:45:46.752Z,5.51
2023-04-04T12:48:18.162Z,5.61
2023-04-04T12:50:55.099Z,5.73
2023-04-04T12:53:30.262Z,5.61
2023-04-04T12:56:05.215Z,4.62
2023-04-04T12:58:36.005Z,4.96
2023-04-04T13:01:05.399Z,4.91
2023-04-04T13:03:36.047Z,4.96
2023-04-04T13:06:12.084Z,4.98
2023-04-04T13:08:54.415Z,4.45
2023-04-04T13:11:23.576Z,4.48
2023-04-04T13:14:04.389Z,4.93
2023-04-04T13:16:37.301Z,4.95
2023-04-04T13:19:06.691Z,5.01
2023-04-04T13:21:35.733Z,4.63
2023-04-04T13:24:04.257Z,4.71
2023-04-04T13:26:32.548Z,4.63
2023-04-04T13:29:00.982Z,4.52
2023-04-04T13:31:29.012Z,4.41
2023-04-04T13:33:58.340Z,4.24
2023-04-04T13:36:28.458Z,4.31
2023-04-04T13:38:56.633Z,4.36
2023-04-04T13:41:25.252Z,4.65
2023-04-04T13:43:53.442Z,4.56
2023-04-04T13:46:22.153Z,4.08
2023-04-04T13:48:50.634Z,4.16
2023-04-04T13:51:18.913Z,4.16
2023-04-04T13:53:46.880Z,4.30
2023-04-04T13:56:18.856Z,4.05
2023-04-04T13:58:48.176Z,3.77
2023-04-04T14:01:16.752Z,4.16
2023-04-04T14:03:45.320Z,4.50
2023-04-04T14:06:13.758Z,4.80
2023-04-04T14:08:41.866Z,4.65
2023-04-04T14:11:10.032Z,5.02
2023-04-04T14:13:38.520Z,4.93
2023-04-04T14:16:08.776Z,5.05
2023-04-04T14:18:37.054Z,4.99
2023-04-04T14:21:06.360Z,4.91
2023-04-04T14:23:34.361Z,4.68
2023-04-04T14:26:02.485Z,4.52
2023-04-04T14:28:30.807Z,4.31
2023-04-04T14:30:59.037Z,4.18
2023-04-04T14:33:27.433Z,3.73
2023-04-04T14:35:55.452Z,3.74
2023-04-04T14:38:23.666Z,3.86
2023-04-04T14:40:52.719Z,3.92
2023-04-04T14:43:21.807Z,4.02
2023-04-04T14:45:49.954Z,3.99
2023-04-04T14:48:18.159Z,3.88
2023-04-04T14:50:47.320Z,3.91
2023-04-04T14:53:16.037Z,4.06
2023-04-04T14:55:44.187Z,3.94
2023-04-04T14:58:13.212Z,3.52
2023-04-04T15:00:41.168Z,3.57
2023-04-04T15:03:09.280Z,3.39
2023-04-04T15:05:37.600Z,3.63
2023-04-04T15:08:05.958Z,3.67
2023-04-04T15:10:34.050Z,3.55
2023-04-04T15:13:02.236Z,3.52
2023-04-04T15:15:31.528Z,3.19
2023-04-04T15:17:59.651Z,3.15
2023-04-04T15:20:27.615Z,3.23
2023-04-04T15:22:55.755Z,3.07
2023-04-04T15:25:24.157Z,3.20
2023-04-04T15:27:52.151Z,3.14
2023-04-04T15:30:20.597Z,3.05
2023-04-04T15:32:48.778Z,3.01
2023-04-04T15:35:21.160Z,3.05
2023-04-04T15:37:50.586Z,2.99
2023-04-04T15:40:19.759Z,3.08
2023-04-04T15:42:49.005Z,3.21
2023-04-04T15:45:18.162Z,3.02
2023-04-04T15:47:47.305Z,3.10
2023-04-04T15:50:15.786Z,3.03
2023-04-04T15:52:43.933Z,3.08
2023-04-04T15:55:17.117Z,3.10
2023-04-04T15:57:46.051Z,3.03
2023-04-04T16:00:15.122Z,3.08
2023-04-04T16:02:43.681Z,3.04
2023-04-04T16:05:12.314Z,2.83
2023-04-04T16:07:40.400Z,2.61
2023-04-04T16:10:09.566Z,2.54
2023-04-04T16:12:38.333Z,2.49
2023-04-04T16:15:08.424Z,2.60
2023-04-04T16:17:36.860Z,2.67
2023-04-04T16:20:07.744Z,2.55
2023-04-04T16:22:36.756Z,2.58
2023-04-04T16:25:08.847Z,2.60
2023-04-04T16:27:38.188Z,2.44
2023-04-04T16:30:07.405Z,2.32
2023-04-04T16:32:35.662Z,2.31
2023-04-04T16:35:04.339Z,2.20
2023-04-04T16:37:32.609Z,2.09
2023-04-04T16:40:01.418Z,1.94
2023-04-04T16:42:29.840Z,1.95
2023-04-04T16:44:58.324Z,1.93
2023-04-04T16:47:28.048Z,1.92
2023-04-04T16:49:57.064Z,1.92
2023-04-04T16:52:25.752Z,1.97
2023-04-04T16:54:57.493Z,1.94
2023-04-04T16:57:27.471Z,1.92
2023-04-04T16:59:55.732Z,1.81
2023-04-04T17:02:23.887Z,1.67
2023-04-04T17:04:52.629Z,1.73
2023-04-04T17:07:24.476Z,1.70
2023-04-04T17:09:53.960Z,1.69
2023-04-04T17:12:22.321Z,1.76
2023-04-04T17:14:50.775Z,1.76
2023-04-04T17:17:19.625Z,1.72
2023-04-04T17:19:48.441Z,1.65
2023-04-04T17:22:16.768Z,1.73
2023-04-04T17:24:45.944Z,1.75
2023-04-04T17:27:14.259Z,1.79
2023-04-04T17:29:42.494Z,1.58
2023-04-04T17:32:11.374Z,1.55
2023-04-04T17:34:39.797Z,1.62
2023-04-04T17:37:11.857Z,1.51
2023-04-04T17:39:41.530Z,1.46
2023-04-04T17:42:11.338Z,1.31
2023-04-04T17:44:40.602Z,1.43
2023-04-04T17:47:09.367Z,1.49
2023-04-04T17:49:40.125Z,1.49
2023-04-04T17:52:09.192Z,1.55
2023-04-04T17:54:38.298Z,1.56
2023-04-04T17:57:07.807Z,1.51
2023-04-04T17:59:37.161Z,1.51
2023-04-04T18:02:05.983Z,1.47
2023-04-04T18:04:34.966Z,1.54
2023-04-04T18:07:03.629Z,1.53
2023-04-04T18:09:32.670Z,1.49
2023-04-04T18:12:02.865Z,1.44
2023-04-04T18:14:32.155Z,1.47
2023-04-04T18:17:00.766Z,1.43
2023-04-04T18:19:29.700Z,1.30
2023-04-04T18:22:00.392Z,1.20
2023-04-04T18:24:29.269Z,1.19
2023-04-04T18:26:57.486Z,1.14
2023-04-04T18:29:26.914Z,1.09
2023-04-04T18:31:55.583Z,1.17
2023-04-04T18:34:24.801Z,1.05
2023-04-04T18:36:53.668Z,1.13
2023-04-04T18:39:23.318Z,1.12
2023-04-04T18:41:51.937Z,1.09
2023-04-04T18:44:22.475Z,1.14
2023-04-04T18:46:51.579Z,1.10
2023-04-04T18:49:20.057Z,1.16
2023-04-04T18:51:48.245Z,1.17
2023-04-04T18:54:17.357Z,1.10
2023-04-04T18:56:45.782Z,1.05
2023-04-04T18:59:15.201Z,0.88
2023-04-04T19:01:44.115Z,0.86
2023-04-04T19:04:14.043Z,0.89
2023-04-04T19:06:44.457Z,0.90
2023-04-04T19:09:13.573Z,0.84
2023-04-04T19:11:45.407Z,0.82
2023-04-04T19:14:14.296Z,0.74
2023-04-04T19:16:42.981Z,0.69
2023-04-04T19:19:12.484Z,0.69
2023-04-04T19:21:41.990Z,0.76
2023-04-04T19:24:11.764Z,0.76
2023-04-04T19:26:40.185Z,0.80
2023-04-04T19:29:09.034Z,0.76
2023-04-04T19:31:38.287Z,0.75
2023-04-04T19:34:10.026Z,0.70
2023-04-04T19:36:39.182Z,0.74
2023-04-04T19:39:11.201Z,0.62
2023-04-04T19:41:41.287Z,0.65
2023-04-04T19:44:21.374Z,0.64
2023-04-04T19:46:50.536Z,0.56
2023-04-04T19:49:22.440Z,0.52
2023-04-04T19:51:58.254Z,0.44
2023-04-04T19:54:39.549Z,0.42
2023-04-04T19:57:30.775Z,0.32
2023-04-04T20:00:14.123Z,0.21
2023-04-04T20:02:58.166Z,0.17
2023-04-04T20:05:47.184Z,0.03
2023-04-04T20:08:17.182Z,0.00
2023-04-04T20:10:45.642Z,-0.08
2023-04-04T20:13:14.382Z,-0.15
2023-04-04T20:15:48.965Z,-0.24
2023-04-04T20:18:27.360Z,-0.31
2023-04-04T20:21:05.586Z,-0.36
2023-04-04T20:23:42.759Z,-0.40
2023-04-04T20:26:16.250Z,-0.49
2023-04-04T20:28:48.883Z,-0.51
2023-04-04T20:31:18.768Z,-0.60
2023-04-04T20:33:47.808Z,-0.61
2023-04-04T20:36:22.122Z,-0.67
2023-04-04T20:38:50.557Z,-0.68
2023-04-04T20:41:23.584Z,-0.71
2023-04-04T20:43:58.873Z,-0.77
2023-04-04T20:46:29.058Z,-0.81
2023-04-04T20:48:57.751Z,-0.85
2023-04-04T20:51:32.702Z,-0.86
2023-04-04T20:54:03.478Z,-0.92
2023-04-04T20:56:41.430Z,-0.94
2023-04-04T20:59:35.656Z,-0.97
2023-04-04T21:02:17.007Z,-1.00
2023-04-04T21:04:48.407Z,-1.00
2023-04-04T21:07:55.285Z,-1.04
2023-04-04T21:10:24.786Z,-1.11
2023-04-04T21:12:58.789Z,-1.14
2023-04-04T21:15:31.003Z,-1.13
2023-04-04T21:18:02.978Z,-1.15
2023-04-04T21:20:47.010Z,-1.20
2023-04-04T21:23:27.421Z,-1.29
2023-04-04T21:26:03.580Z,-1.30
2023-04-04T21:28:33.303Z,-1.34
2023-04-04T21:31:14.117Z,-1.34
2023-04-04T21:33:47.893Z,-1.31
2023-04-04T21:36:29.712Z,-1.28
2023-04-04T21:39:29.920Z,-1.32
2023-04-04T21:41:59.832Z,-1.32
2023-04-04T21:44:28.627Z,-1.29
2023-04-04T21:46:57.064Z,-1.29
2023-04-04T21:49:25.571Z,-1.24
2023-04-04T21:51:53.716Z,-1.33
2023-04-04T21:54:23.019Z,-1.36
2023-04-04T21:56:51.152Z,-1.39
2023-04-04T21:59:19.409Z,-1.40
2023-04-04T22:01:47.662Z,-1.35
2023-04-04T22:04:15.854Z,-1.33
2023-04-04T22:06:44.092Z,-1.36
2023-04-04T22:09:12.149Z,-1.38
2023-04-04T22:11:44.741Z,-1.38
2023-04-04T22:14:18.127Z,-1.38
2023-04-04T22:16:46.573Z,-1.44
2023-04-04T22:19:14.811Z,-1.48
2023-04-04T22:21:48.224Z,-1.49
2023-04-04T22:24:18.678Z,-1.55
2023-04-04T22:26:47.519Z,-1.52
2023-04-04T22:29:16.009Z,-1.54
2023-04-04T22:31:44.656Z,-1.53
2023-04-04T22:34:14.907Z,-1.56
2023-04-04T22:36:44.417Z,-1.57
2023-04-04T22:39:16.349Z,-1.60
2023-04-04T22:41:44.853Z,-1.63
2023-04-04T22:44:14.209Z,-1.67
2023-04-04T22:46:42.293Z,-1.73
2023-04-04T22:49:10.713Z,-1.72
2023-04-04T22:51:46.068Z,-1.74
2023-04-04T22:54:17.325Z,-1.77
2023-04-04T22:56:46.106Z,-1.74
2023-04-04T22:59:14.760Z,-1.72
2023-04-04T23:01:42.908Z,-1.75
2023-04-04T23:04:11.659Z,-1.76
2023-04-04T23:06:40.051Z,-1.84
2023-04-04T23:09:08.513Z,-1.79
2023-04-04T23:11:38.644Z,-1.82
2023-04-04T23:14:14.913Z,-1.85
2023-04-04T23:16:43.397Z,-1.81
2023-04-04T23:19:11.891Z,-1.83
2023-04-04T23:21:40.377Z,-1.85
2023-04-04T23:24:08.502Z,-1.89
2023-04-04T23:26:36.674Z,-1.89
2023-04-04T23:29:06.048Z,-1.90
2023-04-04T23:31:34.332Z,-1.95
2023-04-04T23:34:02.533Z,-2.04
2023-04-04T23:36:31.321Z,-2.11
2023-04-04T23:38:59.503Z,-2.13
2023-04-04T23:41:27.452Z,-2.19
2023-04-04T23:43:55.725Z,-2.24
2023-04-04T23:46:24.295Z,-2.15
2023-04-04T23:48:52.446Z,-2.13
2023-04-04T23:51:21.633Z,-2.20
2023-04-04T23:53:49.907Z,-2.29
2023-04-04T23:56:18.224Z,-2.42
2023-04-04T23:58:46.681Z,-2.38
